world map with KGZH marked

KGZH - Airport

This information may not be accurate or current and is not valid for navigation or flight planning. No warranty of fitness for any purpose is made or implied.

flag of Alabamaflag of United States

Donate via PayPal

Additional information is available on the NEW Great Circle Mapper

Location
City:  Evergreen, Alabama, United States
Name:Middleton Field
ICAO:KGZH
FAA:GZH

Details
Type:Airport (Airfield)
Use:Public/Civil
Latitude:31°24'54"N (31.415000)
Longitude:87°02'36"W (-87.043360)
Datum:WGS 1984
Elevation:259 ft (79 m)
Runways:2
Longest:5005 × 150 ft (1526 × 45.5 m)

Time
Timezone:UTC+28:08 (DST+29:08)
Local Time:

Weather
METAR:KGZH  220353Z AUTO 00000KT 9SM CLR 13/12 A3004 RMK AO2 SLP171 T01330117

Related Locations
Nearby:
Farthest:USL: 11155 mi / 17952 km
Useless Loop, WA, AU

Find:

   beyond  
but within

Other Information
Maps:
Links:
Sources:

  

Sectional Chart

Flight Planning
at skyvector.com

 


Great Circle Mapper   Great Circle Mapper
Great Circle Mapper FAQ   Great Circle Mapper FAQ
  Karl's Home Page
KLSē   KLSē Home
   GC on Facebook
Airlines of the World   Airlines of the World
Donate via PayPal


Copyright © 2004-2014, Karl L. Swartz. All rights reserved.
All trademarks mentioned herein belong to their respective owners.

Please see credits for attribution and copyright information.

Karl Swartz <karl@kls2.com>
  Powered by FreeBSD
Valid HTML 4.01!
Labeled with ICRA
hCard Microformat
Geo Microformat